Weather reports worldwide

Advertisment
Cervera de Pisuerga, Spain (8058): temperature & dewpoint: 14.10.2018 16:00:00 - 20.10.2018 16:00:00 (CEST)Cervera de Pisuerga, Spain (8058): wind speed & gusts: 14.10.2018 16:00:00 - 20.10.2018 16:00:00 (CEST)Cervera de Pisuerga, Spain (8058): wind direction: 14.10.2018 16:00:00 - 20.10.2018 16:00:00 (CEST)Cervera de Pisuerga, Spain (8058): visibility: 14.10.2018 16:00:00 - 20.10.2018 16:00:00 (CEST)Cervera de Pisuerga, Spain (8058): sunshine duration: 14.10.2018 16:00:00 - 20.10.2018 16:00:00 (CEST)Cervera de Pisuerga, Spain (8058): precipitation: 14.10.2018 16:00:00 - 20.10.2018 16:00:00 (CEST)
Date & Time tt [°C] td [°C] ff [km/h] ff [kn] fx [km/h] fx [kn] dd vv [km] sd [min] rr [mm]
20.10.2018 16:00:00 - - - - - - - - - -
20.10.2018 15:00:00 17,2 8,6 17 9 35 19 SE 20 57 0,0
20.10.2018 14:00:00 18,6 8,8 13 7 27 15 SSE 20 40 -
20.10.2018 13:00:00 15,7 8,5 8 5 22 12 SE 20 37 0,0
20.10.2018 12:00:00 13,2 7,7 3 2 12 6 N 20 0 0,0
20.10.2018 11:00:00 11,8 7,7 3 2 21 11 NNW 20 0 0,0
20.10.2018 10:00:00 10,7 6,5 3 2 17 9 NNW 20 0 0,0
20.10.2018 09:00:00 9,4 4,8 6 3 18 10 SW 20 0 0,0
20.10.2018 08:00:00 8,8 3,6 4 2 25 13 N 20 0 -
20.10.2018 07:00:00 9,6 3,8 6 4 23 12 NW 20 0 0,0
20.10.2018 06:00:00 9,6 3,4 5 3 29 15 N 20 0 0,0
20.10.2018 05:00:00 10,1 2,9 10 6 29 15 NNW 20 0 0,0
20.10.2018 04:00:00 9,7 3,2 8 5 25 14 NNW 20 0 0,0
20.10.2018 03:00:00 10,4 3,5 11 6 30 16 NNW 20 0 0,0
20.10.2018 02:00:00 10,5 3,8 12 7 30 16 NW 20 0 -
20.10.2018 01:00:00 10,5 4,0 13 7 30 16 NNW 20 0 0,0
20.10.2018 00:00:00 10,7 4,6 10 5 27 14 NNW 20 0 0,0
19.10.2018 23:00:00 11,3 5,4 10 5 29 16 NW 20 0 0,0
19.10.2018 22:00:00 11,6 6,1 11 6 31 17 NNW 20 0 0,0
19.10.2018 21:00:00 11,3 6,4 12 6 26 14 NNW 20 0 0,0
19.10.2018 20:00:00 - - - - - - - - - -
19.10.2018 19:00:00 12,6 8,3 10 6 24 13 NNW 20 0 0,0
19.10.2018 18:00:00 13,1 8,6 12 6 27 14 NNW 20 0 0,0
19.10.2018 17:00:00 14,1 8,5 10 5 27 15 N 20 0 0,0
19.10.2018 16:00:00 14,2 8,6 14 8 31 17 NNW 20 1 0,0
19.10.2018 15:00:00 15,1 9,0 11 6 24 13 NNW 20 1 0,0
19.10.2018 14:00:00 14,6 8,8 8 4 30 16 NNW 20 15 -
19.10.2018 13:00:00 14,2 9,0 13 7 35 19 NNW 20 6 0,0
19.10.2018 12:00:00 12,4 8,7 11 6 26 14 NNW 20 0 0,0
19.10.2018 11:00:00 12,0 8,3 9 5 26 14 N 20 0 0,0
19.10.2018 10:00:00 11,5 7,6 8 5 27 15 N 20 0 0,0
19.10.2018 09:00:00 11,0 6,9 9 5 29 16 N 20 0 0,0
19.10.2018 08:00:00 10,3 5,7 11 6 24 13 N 20 0 -
19.10.2018 07:00:00 10,3 5,7 11 6 32 17 N 20 0 0,0
19.10.2018 06:00:00 10,8 5,6 10 5 32 17 NNW 20 0 0,0
19.10.2018 05:00:00 10,0 5,8 10 5 25 13 N 20 0 0,0
19.10.2018 04:00:00 10,0 6,4 8 5 19 10 NNW 19 0 0,0
19.10.2018 03:00:00 10,0 5,8 7 4 21 11 NNW 20 0 0,0
19.10.2018 02:00:00 10,3 6,5 7 4 24 13 W 20 0 -
19.10.2018 01:00:00 10,5 7,6 6 4 30 16 N 20 0 0,0
19.10.2018 00:00:00 11,3 8,0 11 6 33 18 NNW 20 0 0,0
18.10.2018 23:00:00 11,1 8,2 12 7 28 15 NNW 20 0 0,0
18.10.2018 22:00:00 10,7 8,1 8 4 26 14 N 20 0 0,0
18.10.2018 21:00:00 10,6 7,8 11 6 27 15 NNW 20 0 0,0
18.10.2018 20:00:00 10,5 7,6 12 7 35 19 N 20 0 -
18.10.2018 19:00:00 10,9 7,4 12 6 34 18 NNW 20 0 0,0
18.10.2018 18:00:00 12,3 7,6 13 7 31 17 NNW 20 0 0,0
18.10.2018 17:00:00 13,7 7,3 8 5 26 14 N 20 5 0,0
18.10.2018 16:00:00 14,0 7,5 10 5 34 18 NNW 20 1 0,0
18.10.2018 15:00:00 14,2 6,6 7 4 31 17 NW 20 13 0,0
18.10.2018 14:00:00 14,3 6,9 13 7 30 16 N 20 28 -
18.10.2018 13:00:00 14,7 7,3 10 5 29 16 NNW 20 46 0,0
18.10.2018 12:00:00 13,1 7,8 14 7 - - NNW 20 57 0,0
18.10.2018 11:00:00 12,5 7,6 - - - - - 20 49 0,0
18.10.2018 10:00:00 11,2 8,2 12 6 34 18 NNW 20 18 0,0
18.10.2018 09:00:00 8,8 7,1 5 3 23 12 NW 20 0 0,0
18.10.2018 08:00:00 8,3 7,2 5 3 20 11 NW 20 0 -
18.10.2018 07:00:00 8,1 6,7 4 2 20 11 NNW 20 0 0,0
18.10.2018 06:00:00 9,0 7,3 5 3 18 10 NW 19 0 0,0
18.10.2018 05:00:00 9,3 7,4 7 4 19 11 NNW 17 0 0,0
18.10.2018 04:00:00 9,3 6,7 4 2 19 10 WNW 20 0 0,0
18.10.2018 03:00:00 8,8 6,6 10 6 21 11 W 20 0 0,0
18.10.2018 02:00:00 8,4 6,5 10 6 18 10 W 20 0 -
18.10.2018 01:00:00 7,9 6,2 6 3 20 11 WNW 20 0 0,0
18.10.2018 00:00:00 8,3 6,6 7 4 18 10 N 20 0 0,0
17.10.2018 23:00:00 8,5 6,5 7 4 17 9 WNW 20 0 0,0
17.10.2018 22:00:00 9,3 5,9 4 2 21 11 NW 20 0 0,0
17.10.2018 21:00:00 9,7 5,7 4 2 18 10 NW 20 0 0,0
17.10.2018 20:00:00 10,9 5,2 1 1 21 12 WNW 20 0 -
17.10.2018 19:00:00 14,2 5,0 8 4 28 15 S 20 14 0,0
17.10.2018 18:00:00 14,8 4,8 14 8 31 17 S 20 18 0,0
17.10.2018 17:00:00 15,8 5,7 11 6 31 17 S 20 32 0,0
17.10.2018 16:00:00 18,7 4,9 17 9 34 19 S 20 55 0,0
17.10.2018 15:00:00 18,9 4,3 17 9 35 19 S 20 53 0,0
17.10.2018 14:00:00 17,5 6,4 16 8 30 16 SSW 20 37 -
17.10.2018 13:00:00 15,5 6,0 8 4 25 13 SSW 20 45 0,0
17.10.2018 12:00:00 14,0 8,6 4 2 18 10 NE 20 60 0,0
17.10.2018 11:00:00 10,4 7,8 9 5 20 11 WSW 20 50 0,0
17.10.2018 10:00:00 7,2 6,1 13 7 21 11 W 20 32 0,0
17.10.2018 09:00:00 5,9 5,0 13 7 21 12 WNW 20 0 0,0
17.10.2018 08:00:00 6,0 5,1 13 7 21 12 WNW 20 0 -
17.10.2018 07:00:00 6,5 5,8 14 7 23 12 WNW 20 0 0,0
17.10.2018 06:00:00 6,1 5,4 16 8 22 12 WNW 20 0 0,2
17.10.2018 05:00:00 6,7 6,0 14 8 22 12 WNW 20 0 0,0
17.10.2018 04:00:00 6,8 5,8 15 8 22 12 W 20 0 0,0
17.10.2018 03:00:00 7,5 6,6 10 6 22 12 WNW 20 0 0,0
17.10.2018 02:00:00 7,7 6,8 12 6 23 12 WNW 20 0 -
17.10.2018 01:00:00 8,1 7,2 10 6 22 12 NW 20 0 0,0
17.10.2018 00:00:00 8,1 7,2 7 4 20 11 WNW 20 0 0,0
16.10.2018 23:00:00 8,6 7,4 8 4 20 11 WNW 20 0 0,0
16.10.2018 22:00:00 9,7 7,8 4 2 18 10 NNW 20 0 0,0
16.10.2018 21:00:00 10,8 7,7 5 3 10 5 NNW 20 0 0,0
16.10.2018 20:00:00 11,8 7,7 3 2 10 6 NNE 20 0 -
16.10.2018 19:00:00 13,6 7,6 4 2 12 6 ENE 20 0 0,0
16.10.2018 18:00:00 15,8 6,5 3 2 13 7 SW 20 14 0,0
16.10.2018 17:00:00 17,0 6,2 7 4 16 9 SE 20 29 0,0
16.10.2018 16:00:00 15,9 6,6 4 2 26 14 E 20 21 0,0
16.10.2018 15:00:00 19,5 6,3 11 6 25 13 S 20 60 0,0
16.10.2018 14:00:00 17,6 6,5 9 5 24 13 S 20 58 -
16.10.2018 13:00:00 16,7 6,2 9 5 22 12 SE 20 60 0,0
16.10.2018 12:00:00 14,5 8,0 11 6 21 11 SSE 20 60 0,2
16.10.2018 11:00:00 11,1 8,7 10 5 18 10 S 20 49 0,0
16.10.2018 10:00:00 6,5 6,4 13 7 18 10 W 20 31 0,0
16.10.2018 09:00:00 5,1 5,0 10 5 21 11 NW 20 0 0,0
16.10.2018 08:00:00 4,5 4,4 14 7 19 10 W 20 0 -
16.10.2018 07:00:00 4,3 4,2 11 6 17 9 W 20 0 0,0
16.10.2018 06:00:00 4,9 4,6 10 5 19 11 NW 7 0 0,0
16.10.2018 05:00:00 5,1 4,8 9 5 19 10 WNW 0,1 0 0,0
16.10.2018 04:00:00 5,3 4,7 10 5 18 10 W 7 0 0,0
16.10.2018 03:00:00 5,8 5,1 10 6 19 10 NW 16 0 0,0
16.10.2018 02:00:00 6,3 5,4 12 7 21 11 WNW 20 0 -
16.10.2018 01:00:00 6,7 5,7 9 5 21 12 W 20 0 0,0
16.10.2018 00:00:00 7,4 6,0 9 5 14 8 WNW 20 0 0,0
15.10.2018 23:00:00 7,9 6,5 4 2 18 10 ENE 20 0 0,0
15.10.2018 22:00:00 7,9 6,5 7 4 19 10 NNE 20 0 0,2
15.10.2018 21:00:00 8,3 6,4 5 3 18 10 S 20 0 0,0
15.10.2018 20:00:00 8,9 6,4 7 4 27 14 SE 20 0 -
15.10.2018 19:00:00 9,9 6,1 7 4 21 11 E 20 39 0,0
15.10.2018 18:00:00 11,6 6,5 10 5 24 13 ESE 20 46 0,0
15.10.2018 17:00:00 14,3 6,9 8 5 23 12 E 20 60 0,2
15.10.2018 16:00:00 11,9 6,2 13 7 23 12 SE 20 4 0,0
15.10.2018 15:00:00 12,8 7,1 10 5 21 11 ESE 20 37 0,0
15.10.2018 14:00:00 10,9 5,9 9 5 19 10 SW 20 4 -
15.10.2018 13:00:00 9,7 5,1 13 7 26 14 SSE 20 19 0,0
15.10.2018 12:00:00 9,5 5,7 7 4 16 9 NNE 20 47 0,0
15.10.2018 11:00:00 8,0 7,1 4 2 14 7 SSW 20 19 0,0
15.10.2018 10:00:00 5,6 5,5 4 2 23 13 S 20 4 0,2
15.10.2018 09:00:00 3,9 3,8 11 6 24 13 SW 20 0 0,0
15.10.2018 08:00:00 3,2 3,1 6 4 14 8 NE 18 0 -
15.10.2018 07:00:00 3,3 3,2 7 4 18 10 N 14 0 0,0
15.10.2018 06:00:00 3,3 3,0 5 3 21 11 NNW - 0 0,0
15.10.2018 05:00:00 3,4 3,1 8 4 16 9 W 20 0 0,0
15.10.2018 04:00:00 4,0 3,7 6 3 16 9 W 0,9 0 0,2
15.10.2018 03:00:00 4,6 4,2 4 2 17 9 W 0,1 0 0,0
15.10.2018 02:00:00 5,4 5,0 8 4 17 9 W 19 0 -
15.10.2018 01:00:00 6,1 5,5 8 4 15 8 NNW 20 0 0,2
15.10.2018 00:00:00 6,0 5,3 3 2 15 8 SSW 15 0 0,0
14.10.2018 23:00:00 5,4 4,5 10 5 16 9 S 20 0 0,0
14.10.2018 22:00:00 5,6 4,6 6 4 17 9 NNW 20 0 0,2
14.10.2018 21:00:00 6,7 5,3 7 4 18 10 W 20 0 0,0
14.10.2018 20:00:00 6,9 5,7 6 4 19 10 NNE 20 0 -
14.10.2018 19:00:00 7,3 5,9 9 5 22 12 N 20 0 0,0
14.10.2018 18:00:00 7,8 6,6 8 4 21 11 N 20 0 0,2
14.10.2018 17:00:00 7,4 5,9 12 7 23 12 W 14 0 0,2
14.10.2018 16:00:00 8,6 7,2 5 3 23 12 NNW 15 0 0,2

tt = temperature
td = dewpoint
ff = wind speed
fx = gusts
dd = wind direction
vv = visibility
sd = sunshine duration
rr = precipitation

Next stations